Time;durP1;ratioP1;P1;durP2;ratioP2;P2;SDS_P1;SDS_P2;PMS_P1;PMS_P2;Temp;Humidity;BMP_temperature;BMP_pressure;BME280_temperature;BME280_humidity;BME280_pressure;Samples;Min_cycle;Max_cycle;Signal;HPM_P1;HPM_P2
2022/07/14 00:00:14;;;;;;;8.88;2.40;;;17.40;99.90;;;;;;5104893;28;20209;-63
2022/07/14 00:02:41;;;;;;;14.93;2.72;;;17.30;99.90;;;;;;5092449;28;20273;-63
2022/07/14 00:05:10;;;;;;;12.93;2.80;;;17.20;99.90;;;;;;5108205;28;20694;-63
2022/07/14 00:07:37;;;;;;;12.88;2.95;;;17.10;99.90;;;;;;5114735;28;20651;-63
2022/07/14 00:10:05;;;;;;;12.23;2.78;;;17.10;99.90;;;;;;5108197;28;20251;-63
2022/07/14 00:12:32;;;;;;;14.63;2.60;;;17.10;99.90;;;;;;5093331;28;20566;-63
2022/07/14 00:14:59;;;;;;;8.35;2.83;;;17.10;99.90;;;;;;5102117;28;20229;-63
2022/07/14 00:17:26;;;;;;;12.63;3.45;;;17.00;99.90;;;;;;5109194;28;20205;-63
2022/07/14 00:19:53;;;;;;;8.40;2.72;;;17.10;99.90;;;;;;5111645;28;20250;-63
2022/07/14 00:22:22;;;;;;;10.38;2.22;;;17.00;99.90;;;;;;5107960;28;20204;-63
2022/07/14 00:24:49;;;;;;;13.68;3.17;;;17.00;99.90;;;;;;5112448;28;20220;-63
2022/07/14 00:27:16;;;;;;;9.85;2.80;;;17.00;99.90;;;;;;5112337;28;20201;-63
2022/07/14 00:29:43;;;;;;;13.95;3.65;;;16.90;99.90;;;;;;5112501;28;20229;-63
2022/07/14 00:32:11;;;;;;;10.23;2.55;;;17.00;99.90;;;;;;5110456;28;20250;-63
2022/07/14 00:34:38;;;;;;;11.07;2.67;;;16.90;99.90;;;;;;5112198;28;20643;-63
2022/07/14 00:37:05;;;;;;;11.88;2.78;;;16.90;99.90;;;;;;5110012;28;20301;-63
2022/07/14 00:42:14;;;;;;;12.98;3.22;;;17.20;99.90;;;;;;5110700;28;20280;-63
2022/07/14 00:44:41;;;;;;;13.13;2.70;;;17.20;99.90;;;;;;5099432;28;20261;-72
2022/07/14 00:47:08;;;;;;;12.15;2.58;;;16.80;99.90;;;;;;5102326;28;20228;-63
2022/07/14 00:49:35;;;;;;;14.07;3.17;;;16.80;99.90;;;;;;5110541;28;20631;-63
2022/07/14 00:52:02;;;;;;;11.38;2.72;;;16.80;99.90;;;;;;5104190;28;20201;-67
2022/07/14 00:54:30;;;;;;;12.20;3.17;;;16.80;99.90;;;;;;5100198;28;20197;-68
2022/07/14 00:56:58;;;;;;;11.95;3.08;;;16.80;99.90;;;;;;5111116;28;20560;-68
2022/07/14 00:59:25;;;;;;;12.05;3.00;;;16.70;99.90;;;;;;5104334;28;20258;-68
2022/07/14 01:01:52;;;;;;;11.57;3.28;;;16.70;99.90;;;;;;5111887;28;20593;-68
2022/07/14 01:04:19;;;;;;;13.13;2.70;;;16.70;99.90;;;;;;5100095;28;20232;-67
2022/07/14 01:06:46;;;;;;;13.05;3.00;;;16.60;99.90;;;;;;5112813;28;20246;-67
2022/07/14 01:09:13;;;;;;;12.57;3.42;;;16.50;99.90;;;;;;5118740;27;20235;-68
2022/07/14 01:11:40;;;;;;;15.48;2.90;;;16.60;99.90;;;;;;5113747;27;20201;-67
2022/07/14 01:14:09;;;;;;;12.32;3.35;;;16.50;99.90;;;;;;5112524;28;20197;-67
2022/07/14 01:16:36;;;;;;;11.60;3.45;;;16.50;99.90;;;;;;5111605;28;20250;-68
2022/07/14 01:19:03;;;;;;;14.85;3.10;;;16.40;99.90;;;;;;5111294;28;20750;-67
2022/07/14 01:21:31;;;;;;;11.23;2.92;;;16.50;99.90;;;;;;5093928;28;20197;-68
2022/07/14 01:23:58;;;;;;;12.38;3.13;;;16.40;99.90;;;;;;5104570;28;20616;-68
2022/07/14 01:26:25;;;;;;;11.02;3.35;;;16.30;99.90;;;;;;5111380;28;20540;-68
2022/07/14 01:28:52;;;;;;;12.52;2.83;;;16.30;99.90;;;;;;5102142;28;20201;-68
2022/07/14 01:31:19;;;;;;;13.48;3.00;;;16.40;99.90;;;;;;5097858;28;20201;-68
2022/07/14 01:33:46;;;;;;;16.15;3.17;;;16.30;99.90;;;;;;5112846;28;20240;-68
2022/07/14 01:36:13;;;;;;;11.82;3.20;;;16.30;99.90;;;;;;5110642;28;20244;-68
2022/07/14 01:38:41;;;;;;;11.93;2.85;;;16.50;99.90;;;;;;5110898;28;20259;-68
2022/07/14 01:41:08;;;;;;;13.27;3.33;;;16.60;99.90;;;;;;5110498;28;20197;-67
2022/07/14 01:43:36;;;;;;;9.85;3.08;;;16.50;99.90;;;;;;5107923;28;20669;-68
2022/07/14 01:46:03;;;;;;;15.05;3.20;;;16.50;99.90;;;;;;5109805;28;20207;-67
2022/07/14 01:48:30;;;;;;;12.00;2.92;;;16.50;99.90;;;;;;5109971;28;20193;-68
2022/07/14 01:50:57;;;;;;;15.68;3.67;;;16.50;99.90;;;;;;5111835;28;20238;-67
2022/07/14 01:53:24;;;;;;;13.23;3.10;;;16.40;99.90;;;;;;5112436;28;20236;-67
2022/07/14 01:55:52;;;;;;;9.63;2.83;;;16.30;99.90;;;;;;5096072;28;20284;-68
2022/07/14 01:58:19;;;;;;;15.02;3.28;;;16.20;99.90;;;;;;5097484;28;20284;-68
2022/07/14 02:01:39;;;;;;;13.45;2.90;;;16.30;99.90;;;;;;5111237;28;20254;-68
2022/07/14 02:03:34;;;;;;;9.63;2.73;;;16.30;99.90;;;;;;5109557;28;20212;-67
2022/07/14 02:06:01;;;;;;;11.98;3.00;;;16.20;99.90;;;;;;5098737;28;20601;-67
2022/07/14 02:08:28;;;;;;;7.95;2.70;;;16.00;99.90;;;;;;5111126;28;20635;-68
2022/07/14 02:13:41;;;;;;;11.32;3.42;;;16.20;99.90;;;;;;5111999;28;20203;-67
2022/07/14 02:16:08;;;;;;;11.27;2.97;;;16.10;99.90;;;;;;5111134;28;20250;-68
2022/07/14 02:18:35;;;;;;;8.85;2.45;;;16.00;99.90;;;;;;5107565;28;20200;-67
2022/07/14 02:21:03;;;;;;;8.23;2.47;;;16.00;99.90;;;;;;5098440;28;20193;-68
2022/07/14 02:23:30;;;;;;;10.27;2.60;;;15.80;99.90;;;;;;5109450;28;20238;-67
2022/07/14 02:25:58;;;;;;;11.50;2.77;;;15.80;99.90;;;;;;5112071;28;20731;-67
2022/07/14 02:28:25;;;;;;;12.73;2.73;;;15.80;99.90;;;;;;5110521;28;20211;-68
2022/07/14 02:30:52;;;;;;;13.03;3.33;;;15.70;99.90;;;;;;5089564;28;20640;-68
2022/07/14 02:33:19;;;;;;;12.30;2.80;;;15.70;99.90;;;;;;5096566;28;20722;-68
2022/07/14 02:35:46;;;;;;;13.13;2.57;;;15.90;99.90;;;;;;5092465;28;20210;-68
2022/07/14 02:38:13;;;;;;;12.10;2.57;;;16.00;99.90;;;;;;5095746;28;20628;-68
2022/07/14 02:40:40;;;;;;;11.25;3.05;;;16.00;99.90;;;;;;5111136;28;20197;-67
2022/07/14 02:43:09;;;;;;;13.45;2.80;;;16.00;99.90;;;;;;5109643;28;20250;-67
2022/07/14 02:45:36;;;;;;;9.40;2.85;;;15.70;99.90;;;;;;5091274;28;20225;-67
2022/07/14 02:48:03;;;;;;;13.37;3.30;;;15.70;99.90;;;;;;5107037;28;20250;-68
2022/07/14 02:50:30;;;;;;;13.33;2.77;;;15.70;99.90;;;;;;5108254;28;20281;-68
2022/07/14 02:52:57;;;;;;;9.15;2.92;;;15.80;99.90;;;;;;5110532;28;20604;-68
2022/07/14 02:55:24;;;;;;;9.55;2.65;;;15.90;99.90;;;;;;5106699;28;20295;-67
2022/07/14 02:57:51;;;;;;;11.05;2.60;;;15.90;99.90;;;;;;5108148;28;20236;-68
2022/07/14 03:00:20;;;;;;;12.35;2.60;;;15.70;99.90;;;;;;5110101;28;20704;-68
2022/07/14 03:02:47;;;;;;;14.23;2.60;;;15.60;99.90;;;;;;5108692;28;20251;-68
2022/07/14 03:05:14;;;;;;;9.27;2.30;;;15.70;99.90;;;;;;5103552;28;20233;-68
2022/07/14 03:07:42;;;;;;;9.70;2.97;;;15.40;99.90;;;;;;5096306;28;20225;-68
2022/07/14 03:10:10;;;;;;;9.30;2.83;;;15.50;99.90;;;;;;5110150;28;20201;-68
2022/07/14 03:12:36;;;;;;;10.97;2.77;;;15.40;99.90;;;;;;5110739;28;20588;-68
2022/07/14 03:15:04;;;;;;;12.83;2.50;;;15.40;99.90;;;;;;5108496;28;20209;-67
2022/07/14 03:17:32;;;;;;;10.48;3.15;;;15.30;99.90;;;;;;5097643;28;20284;-67
2022/07/14 03:20:00;;;;;;;13.27;3.13;;;15.20;99.90;;;;;;5100592;28;20197;-67
2022/07/14 03:22:27;;;;;;;9.00;2.55;;;15.10;99.90;;;;;;5092521;28;20198;-68
2022/07/14 03:24:54;;;;;;;10.25;2.22;;;15.20;99.90;;;;;;5110668;28;20271;-68
2022/07/14 03:27:21;;;;;;;11.88;2.83;;;15.50;99.90;;;;;;5113458;28;20197;-68
2022/07/14 03:29:48;;;;;;;10.85;2.90;;;15.40;99.90;;;;;;5115024;28;20235;-68
2022/07/14 03:32:15;;;;;;;13.40;3.23;;;15.30;99.90;;;;;;5113301;28;20196;-67
2022/07/14 03:34:44;;;;;;;14.70;3.03;;;15.20;99.90;;;;;;5106763;28;20209;-67
2022/07/14 03:37:11;;;;;;;9.63;2.70;;;15.30;99.90;;;;;;5095058;28;20205;-67
2022/07/14 03:39:39;;;;;;;13.57;2.87;;;15.40;99.90;;;;;;5094138;28;20216;-67
2022/07/14 03:42:06;;;;;;;12.17;3.23;;;15.40;99.90;;;;;;5094507;28;20201;-67
2022/07/14 03:44:33;;;;;;;14.47;2.93;;;15.30;99.90;;;;;;5093728;28;20259;-67
2022/07/14 03:47:00;;;;;;;13.90;3.23;;;15.20;99.90;;;;;;5094627;28;20250;-67
2022/07/14 03:49:27;;;;;;;13.80;3.67;;;15.20;99.90;;;;;;5092677;28;20205;-68
2022/07/14 03:51:56;;;;;;;11.43;2.73;;;15.30;99.90;;;;;;5093718;28;20266;-68
2022/07/14 03:54:23;;;;;;;10.52;3.05;;;15.40;99.90;;;;;;5093751;28;20202;-67
2022/07/14 03:56:50;;;;;;;13.47;3.43;;;15.40;99.90;;;;;;5094587;28;20243;-68
2022/07/14 03:59:17;;;;;;;7.67;2.77;;;15.40;99.90;;;;;;5094511;28;20297;-67
2022/07/14 04:01:44;;;;;;;10.45;3.13;;;15.30;99.90;;;;;;5092032;28;20251;-67
2022/07/14 04:04:11;;;;;;;11.27;3.70;;;15.40;99.90;;;;;;5093724;28;20202;-68
2022/07/14 04:06:38;;;;;;;13.47;3.33;;;15.20;99.90;;;;;;5093936;28;20247;-67
2022/07/14 04:09:06;;;;;;;12.03;3.40;;;15.30;99.90;;;;;;5093649;28;20247;-65
2022/07/14 04:11:33;;;;;;;10.73;4.13;;;15.40;99.90;;;;;;5093528;28;20201;-65
2022/07/14 04:14:01;;;;;;;14.52;2.92;;;15.40;99.90;;;;;;5093469;28;20620;-65
2022/07/14 04:16:28;;;;;;;11.50;3.10;;;15.40;99.90;;;;;;5094572;28;20208;-65
2022/07/14 04:18:55;;;;;;;9.77;2.87;;;15.50;99.90;;;;;;5096253;28;20624;-65
2022/07/14 04:21:22;;;;;;;12.40;3.53;;;15.60;99.90;;;;;;5112433;28;20201;-65
2022/07/14 04:23:49;;;;;;;15.82;3.05;;;15.60;99.90;;;;;;5111156;28;20713;-65
2022/07/14 04:26:17;;;;;;;17.38;3.13;;;15.60;99.90;;;;;;5114172;27;20226;-64
2022/07/14 04:28:44;;;;;;;14.57;3.30;;;15.60;99.90;;;;;;5113656;27;20201;-65
2022/07/14 04:31:12;;;;;;;10.53;3.00;;;15.70;99.90;;;;;;5093196;28;20208;-65
2022/07/14 04:33:39;;;;;;;12.63;3.20;;;15.70;99.90;;;;;;5092612;28;20209;-65
2022/07/14 04:36:06;;;;;;;14.27;3.63;;;15.80;99.90;;;;;;5094189;28;20334;-65
2022/07/14 04:38:34;;;;;;;11.73;2.87;;;15.70;99.90;;;;;;5092626;28;20240;-65
2022/07/14 04:41:01;;;;;;;13.98;2.88;;;15.80;99.90;;;;;;5092680;28;20197;-65
2022/07/14 04:43:30;;;;;;;10.90;3.13;;;15.70;99.90;;;;;;5093887;28;20217;-65
2022/07/14 04:45:57;;;;;;;14.35;3.10;;;15.70;99.90;;;;;;5092756;28;20333;-65
2022/07/14 04:48:24;;;;;;;11.77;3.30;;;15.70;99.90;;;;;;5093677;28;20209;-65
2022/07/14 04:53:36;;;;;;;16.33;3.53;;;15.30;99.90;;;;;;5093411;28;20197;-65
2022/07/14 04:56:03;;;;;;;8.57;3.33;;;15.40;99.90;;;;;;5092943;28;20213;-65
2022/07/14 04:58:31;;;;;;;12.90;3.33;;;15.50;99.90;;;;;;5093642;28;20644;-65
2022/07/14 05:00:59;;;;;;;12.23;3.30;;;15.40;99.90;;;;;;5092587;28;20255;-65
2022/07/14 05:03:26;;;;;;;12.52;2.90;;;15.60;99.90;;;;;;5091758;28;20204;-65
2022/07/14 05:05:53;;;;;;;11.87;3.37;;;15.80;99.90;;;;;;5093344;28;20224;-65
2022/07/14 05:08:21;;;;;;;12.87;3.53;;;15.90;99.90;;;;;;5093757;28;20202;-65
2022/07/14 05:10:48;;;;;;;12.52;3.17;;;16.00;99.90;;;;;;5094336;28;20206;-65
2022/07/14 05:13:15;;;;;;;11.75;3.42;;;15.90;99.90;;;;;;5108286;28;20197;-65
2022/07/14 05:15:44;;;;;;;9.37;2.63;;;15.80;99.90;;;;;;5110680;28;20201;-65
2022/07/14 05:18:11;;;;;;;12.00;3.03;;;16.10;99.90;;;;;;5110514;28;20242;-65
2022/07/14 05:20:38;;;;;;;12.85;3.30;;;16.40;99.90;;;;;;5109490;28;20200;-65
2022/07/14 05:23:05;;;;;;;12.75;2.95;;;16.40;99.90;;;;;;5111823;28;20197;-65
2022/07/14 05:25:32;;;;;;;15.68;2.92;;;16.40;99.90;;;;;;5095333;28;20799;-65
2022/07/14 05:27:59;;;;;;;10.80;3.20;;;16.40;99.90;;;;;;5092866;28;20224;-65
2022/07/14 05:30:26;;;;;;;7.18;2.45;;;16.40;99.90;;;;;;5093223;28;20318;-64
2022/07/14 05:32:54;;;;;;;10.00;3.13;;;16.40;99.90;;;;;;5090039;28;20593;-65
2022/07/14 05:35:21;;;;;;;9.65;2.60;;;16.50;99.90;;;;;;5092781;28;20216;-65
2022/07/14 05:37:48;;;;;;;11.35;3.28;;;16.40;99.90;;;;;;5092522;28;20193;-65
2022/07/14 05:40:15;;;;;;;16.58;3.20;;;16.40;99.90;;;;;;5091981;28;20233;-65
2022/07/14 05:42:42;;;;;;;10.40;2.80;;;16.80;99.90;;;;;;5091774;28;20254;-65
2022/07/14 05:45:10;;;;;;;13.47;2.97;;;17.20;99.90;;;;;;5103454;28;20256;-65
2022/07/14 05:47:38;;;;;;;13.20;3.03;;;17.50;99.90;;;;;;5112563;28;20197;-65
2022/07/14 05:50:08;;;;;;;11.13;2.80;;;17.30;99.90;;;;;;5111218;28;20197;-65
2022/07/14 05:52:35;;;;;;;11.48;3.35;;;17.50;99.90;;;;;;5112017;28;20205;-65
2022/07/14 05:55:02;;;;;;;13.30;3.38;;;18.30;99.90;;;;;;5111664;28;20698;-65
2022/07/14 05:57:29;;;;;;;14.45;3.25;;;19.40;99.90;;;;;;5110373;28;20200;-65
2022/07/14 05:59:56;;;;;;;10.77;3.53;;;20.50;99.90;;;;;;5096490;28;20240;-65
2022/07/14 06:02:23;;;;;;;12.68;2.95;;;20.40;99.90;;;;;;5109751;28;20205;-65
2022/07/14 06:04:50;;;;;;;8.43;2.95;;;19.80;99.90;;;;;;5111329;28;20197;-65
2022/07/14 06:07:18;;;;;;;10.63;3.15;;;18.50;99.90;;;;;;5110840;28;20197;-65
2022/07/14 06:09:47;;;;;;;11.27;2.63;;;17.80;99.90;;;;;;5110735;28;20197;-65
2022/07/14 06:12:14;;;;;;;14.30;3.10;;;17.60;99.90;;;;;;5091639;28;20209;-65
2022/07/14 06:14:42;;;;;;;11.73;2.90;;;17.60;99.90;;;;;;5091323;28;20198;-65
2022/07/14 06:17:09;;;;;;;7.88;2.53;;;17.60;99.90;;;;;;5092208;28;20624;-65
2022/07/14 06:19:36;;;;;;;10.65;2.40;;;17.90;99.90;;;;;;5091877;28;20201;-65
2022/07/14 06:22:04;;;;;;;9.13;2.10;;;17.70;99.90;;;;;;5090110;28;20198;-65
2022/07/14 06:24:33;;;;;;;11.02;2.50;;;17.90;99.90;;;;;;5091710;28;20198;-65
2022/07/14 06:27:00;;;;;;;9.30;2.08;;;18.00;99.90;;;;;;5090539;28;20286;-65
2022/07/14 06:29:27;;;;;;;11.48;2.97;;;17.60;99.90;;;;;;5092045;28;20212;-64
2022/07/14 06:31:55;;;;;;;14.88;2.75;;;17.80;99.90;;;;;;5090108;28;20202;-65
2022/07/14 06:34:22;;;;;;;13.52;2.38;;;17.60;99.90;;;;;;5090511;28;20209;-65
2022/07/14 06:36:49;;;;;;;10.80;2.85;;;17.50;99.90;;;;;;5090483;28;20209;-65
2022/07/14 06:39:17;;;;;;;13.65;3.38;;;17.40;99.90;;;;;;5091785;28;20568;-64
2022/07/14 06:41:45;;;;;;;7.82;2.30;;;17.20;99.90;;;;;;5093174;28;20201;-65
2022/07/14 06:44:13;;;;;;;10.20;2.60;;;17.40;99.90;;;;;;5126835;27;20204;-65
2022/07/14 06:46:40;;;;;;;8.95;2.15;;;17.70;99.90;;;;;;5110959;28;20264;-65
2022/07/14 06:49:07;;;;;;;9.57;2.35;;;17.50;99.90;;;;;;5111174;28;20603;-65
2022/07/14 06:51:34;;;;;;;11.52;2.63;;;17.70;99.90;;;;;;5111087;28;20250;-65
2022/07/14 06:54:01;;;;;;;10.10;3.05;;;17.80;99.90;;;;;;5111252;28;20292;-65
2022/07/14 06:56:28;;;;;;;9.98;2.50;;;17.60;99.90;;;;;;5095562;28;20208;-65
2022/07/14 06:58:56;;;;;;;11.30;3.40;;;17.60;99.90;;;;;;5091335;28;20202;-65
2022/07/14 07:01:24;;;;;;;10.93;3.50;;;17.80;99.90;;;;;;5088857;28;20201;-65
2022/07/14 07:03:51;;;;;;;10.43;3.28;;;17.90;99.90;;;;;;5089441;28;20209;-65
2022/07/14 07:09:03;;;;;;;13.38;4.38;;;17.80;99.90;;;;;;5090207;28;20555;-65
2022/07/14 07:11:30;;;;;;;12.70;4.72;;;17.80;99.90;;;;;;5090618;28;20229;-65
2022/07/14 07:13:58;;;;;;;11.50;4.10;;;17.90;99.90;;;;;;5090264;28;20233;-65
2022/07/14 07:16:25;;;;;;;8.30;3.60;;;18.00;99.90;;;;;;5104212;28;20452;-65
2022/07/14 07:18:52;;;;;;;11.10;3.13;;;18.30;99.90;;;;;;5096933;28;20197;-65
2022/07/14 07:21:20;;;;;;;9.82;4.47;;;18.20;99.90;;;;;;5095413;28;20205;-65
2022/07/14 07:23:48;;;;;;;11.13;2.63;;;18.30;99.90;;;;;;5097345;28;20241;-72
2022/07/14 07:26:16;;;;;;;9.52;3.20;;;18.30;99.90;;;;;;5109357;28;20744;-72
2022/07/14 07:28:43;;;;;;;11.02;3.15;;;18.80;99.90;;;;;;5110830;28;20233;-72
2022/07/14 07:31:11;;;;;;;7.97;3.30;;;18.90;97.80;;;;;;5110650;28;20249;-72
2022/07/14 07:33:38;;;;;;;9.05;2.67;;;18.90;99.90;;;;;;5109793;28;20197;-72
2022/07/14 07:36:05;;;;;;;6.20;2.80;;;18.80;98.80;;;;;;5111383;28;20262;-73
2022/07/14 07:38:32;;;;;;;11.35;2.65;;;18.70;97.80;;;;;;5111885;28;20555;-72
2022/07/14 07:41:02;;;;;;;13.63;2.95;;;18.70;98.50;;;;;;5109674;28;20545;-72
2022/07/14 07:43:29;;;;;;;6.82;1.98;;;18.70;95.80;;;;;;5111987;28;20563;-72
2022/07/14 07:45:56;;;;;;;8.98;2.38;;;18.10;99.40;;;;;;5110392;28;20220;-72
2022/07/14 07:48:25;;;;;;;10.43;2.00;;;18.40;99.90;;;;;;5111145;28;20711;-72
2022/07/14 07:50:51;;;;;;;9.57;2.53;;;18.50;99.90;;;;;;5109917;28;20659;-72
2022/07/14 07:53:19;;;;;;;11.98;2.45;;;18.40;95.00;;;;;;5110853;28;20592;-72
2022/07/14 07:55:46;;;;;;;8.52;2.38;;;18.40;95.80;;;;;;5109969;28;20242;-72
2022/07/14 07:58:13;;;;;;;10.90;2.35;;;18.60;93.00;;;;;;5111097;28;20207;-73
2022/07/14 08:00:41;;;;;;;10.52;2.25;;;18.80;92.70;;;;;;5110899;28;20239;-72
2022/07/14 08:03:08;;;;;;;5.95;2.33;;;18.40;89.20;;;;;;5109489;28;20201;-72
2022/07/14 08:05:37;;;;;;;8.55;2.20;;;18.80;96.60;;;;;;5111289;28;20205;-73
2022/07/14 08:08:07;;;;;;;8.68;2.00;;;19.00;93.40;;;;;;5110770;28;20568;-72
2022/07/14 08:10:34;;;;;;;12.10;2.42;;;19.20;86.30;;;;;;5109230;28;20205;-72
2022/07/14 08:13:01;;;;;;;4.03;1.80;;;18.70;86.30;;;;;;5110423;28;20300;-72
2022/07/14 08:15:28;;;;;;;4.28;1.80;;;19.30;90.30;;;;;;5110944;28;21853;-72
2022/07/14 08:17:55;;;;;;;7.70;1.90;;;19.20;75.20;;;;;;5112368;28;20254;-72
2022/07/14 08:20:22;;;;;;;10.60;2.00;;;19.20;80.40;;;;;;5113657;28;20197;-72
2022/07/14 08:22:51;;;;;;;4.90;2.00;;;18.90;76.30;;;;;;5112367;28;20250;-72
2022/07/14 08:25:19;;;;;;;7.50;2.55;;;19.10;80.80;;;;;;5112592;28;20226;-72
2022/07/14 08:27:46;;;;;;;7.55;2.17;;;19.30;84.90;;;;;;5111959;28;20279;-72
2022/07/14 08:30:14;;;;;;;13.35;2.30;;;18.90;82.30;;;;;;5114532;28;20236;-72
2022/07/14 08:32:44;;;;;;;6.95;1.90;;;18.90;81.40;;;;;;5112358;28;20285;-72
2022/07/14 08:35:14;;;;;;;5.25;1.92;;;19.00;81.40;;;;;;5101636;28;20217;-72
2022/07/14 08:37:42;;;;;;;5.70;1.83;;;18.60;72.50;;;;;;5094048;28;20292;-72
2022/07/14 08:40:13;;;;;;;7.35;2.25;;;18.70;77.70;;;;;;5092355;28;20598;-72
2022/07/14 08:42:44;;;;;;;5.55;2.17;;;19.00;74.60;;;;;;5092451;28;20302;-73
2022/07/14 08:45:13;;;;;;;8.02;2.35;;;19.10;71.10;;;;;;5093038;28;20662;-72
2022/07/14 08:47:41;;;;;;;8.82;2.72;;;19.10;72.60;;;;;;5093602;28;20708;-72
2022/07/14 08:50:11;;;;;;;7.90;2.55;;;19.10;72.70;;;;;;5093327;28;20204;-72
2022/07/14 08:52:38;;;;;;;10.50;3.10;;;19.00;64.90;;;;;;5093017;28;20229;-72
2022/07/14 08:55:07;;;;;;;8.48;2.95;;;19.00;67.00;;;;;;5092534;28;20202;-72
2022/07/14 08:57:36;;;;;;;8.93;2.72;;;19.10;67.80;;;;;;5092338;28;20205;-73
2022/07/14 09:00:07;;;;;;;8.35;2.85;;;19.50;62.30;;;;;;5093738;28;20252;-72
2022/07/14 09:02:34;;;;;;;6.13;2.60;;;19.80;59.00;;;;;;5092153;28;20216;-73
2022/07/14 09:05:01;;;;;;;9.55;2.88;;;20.40;55.80;;;;;;5092114;28;20636;-73
2022/07/14 09:07:33;;;;;;;9.25;3.33;;;20.80;51.20;;;;;;5106710;28;20209;-73
2022/07/14 09:10:09;;;;;;;8.00;3.25;;;21.20;47.20;;;;;;5112786;28;20219;-72
2022/07/14 09:12:38;;;;;;;6.72;2.63;;;20.60;46.10;;;;;;5095165;28;20661;-72
2022/07/14 09:17:54;;;;;;;6.28;2.80;;;21.40;47.80;;;;;;5092249;28;20570;-73
2022/07/14 09:20:21;;;;;;;4.70;2.60;;;21.90;44.00;;;;;;5093040;28;20237;-73
2022/07/14 09:22:49;;;;;;;6.20;2.78;;;22.40;40.40;;;;;;5092778;28;20229;-73
2022/07/14 09:25:18;;;;;;;6.38;1.95;;;22.30;32.30;;;;;;5092573;28;20204;-73
2022/07/14 09:27:48;;;;;;;5.05;1.90;;;22.10;31.90;;;;;;5094925;28;20772;-73
2022/07/14 09:30:16;;;;;;;5.50;2.33;;;23.10;34.80;;;;;;5111749;28;20205;-73
2022/07/14 09:32:48;;;;;;;10.65;2.88;;;22.90;34.60;;;;;;5111460;28;20674;-73
2022/07/14 09:35:18;;;;;;;5.68;2.10;;;23.40;32.20;;;;;;5099430;28;20561;-73
2022/07/14 09:37:46;;;;;;;7.30;2.28;;;23.30;30.20;;;;;;5092856;28;20209;-73
2022/07/14 09:40:21;;;;;;;4.63;2.50;;;22.40;32.30;;;;;;5091910;28;20255;-73
2022/07/14 09:42:53;;;;;;;8.27;2.65;;;22.70;38.20;;;;;;5092021;28;20240;-73
2022/07/14 09:45:21;;;;;;;6.85;2.15;;;22.80;35.20;;;;;;5092143;28;20342;-73
2022/07/14 09:48:01;;;;;;;7.90;2.20;;;23.00;35.50;;;;;;5092508;28;20226;-72
2022/07/14 09:50:39;;;;;;;8.75;2.13;;;22.80;39.70;;;;;;5092148;28;20266;-73
2022/07/14 09:53:21;;;;;;;7.18;2.60;;;22.50;37.80;;;;;;5091703;28;20284;-74
2022/07/14 09:55:59;;;;;;;5.22;2.00;;;23.00;30.60;;;;;;5092587;28;20316;-73
2022/07/14 09:58:31;;;;;;;8.13;2.00;;;23.90;29.00;;;;;;5092448;28;20623;-73
2022/07/14 10:01:00;;;;;;;5.75;1.77;;;23.50;31.30;;;;;;5107819;27;20288;-73
2022/07/14 10:03:29;;;;;;;5.00;1.83;;;23.30;28.20;;;;;;5114597;27;20201;-73
2022/07/14 10:05:57;;;;;;;6.35;1.70;;;23.00;27.90;;;;;;5096866;28;20580;-73
2022/07/14 10:08:26;;;;;;;4.28;1.77;;;22.70;26.30;;;;;;5091870;28;20274;-73
2022/07/14 10:10:54;;;;;;;4.57;1.80;;;23.70;26.60;;;;;;5091146;28;20243;-73
2022/07/14 10:13:23;;;;;;;3.13;1.52;;;23.40;24.50;;;;;;5092478;28;20522;-73
2022/07/14 10:15:53;;;;;;;5.68;1.70;;;24.10;23.40;;;;;;5091409;28;20201;-73
2022/07/14 10:18:20;;;;;;;4.03;1.58;;;23.90;24.50;;;;;;5091983;28;20225;-73
2022/07/14 10:20:50;;;;;;;6.07;1.85;;;23.80;21.90;;;;;;5090586;28;20255;-73
2022/07/14 10:23:17;;;;;;;4.30;1.55;;;24.50;21.70;;;;;;5092066;28;20581;-73
2022/07/14 10:25:47;;;;;;;5.38;1.77;;;24.50;22.10;;;;;;5091073;28;20663;-73
2022/07/14 10:28:15;;;;;;;5.93;1.70;;;24.00;21.90;;;;;;5091995;28;20596;-73
2022/07/14 10:30:49;;;;;;;6.03;1.70;;;24.30;18.60;;;;;;5091623;28;20210;-73
2022/07/14 10:33:27;;;;;;;5.65;1.73;;;24.40;19.40;;;;;;5091067;28;20237;-73
2022/07/14 10:36:03;;;;;;;5.97;1.50;;;24.30;19.70;;;;;;5090277;28;20667;-69
2022/07/14 10:38:47;;;;;;;3.85;1.50;;;24.50;16.10;;;;;;5092985;28;20704;-66
2022/07/14 10:41:25;;;;;;;5.32;1.60;;;24.70;18.20;;;;;;5091639;28;20209;-66
2022/07/14 10:44:05;;;;;;;3.42;1.27;;;24.50;16.70;;;;;;5115315;27;20193;-66
2022/07/14 10:46:36;;;;;;;4.05;1.50;;;24.60;16.00;;;;;;5111305;28;20689;-66
2022/07/14 10:49:07;;;;;;;3.95;1.40;;;25.10;14.90;;;;;;5109537;28;20648;-66
2022/07/14 10:51:34;;;;;;;2.97;1.45;;;24.40;17.40;;;;;;5091820;28;20229;-66
2022/07/14 10:54:06;;;;;;;5.30;1.70;;;24.70;16.40;;;;;;5092038;28;20206;-66
2022/07/14 10:56:33;;;;;;;3.20;1.20;;;25.30;16.90;;;;;;5092442;28;20201;-65
2022/07/14 10:59:37;;;;;;;4.05;1.50;;;25.00;17.70;;;;;;5092245;28;20617;-66
2022/07/14 11:02:28;;;;;;;3.67;1.20;;;24.50;14.70;;;;;;5090287;28;20547;-66
2022/07/14 11:05:20;;;;;;;2.45;1.13;;;24.80;12.20;;;;;;5092482;28;20270;-65
2022/07/14 11:07:50;;;;;;;2.42;1.10;;;25.30;11.30;;;;;;5072036;28;20221;-66
2022/07/14 11:11:08;;;;;;;2.30;1.10;;;25.30;9.20;;;;;;5091573;28;20580;-66
2022/07/14 11:13:35;;;;;;;3.85;1.42;;;25.20;11.20;;;;;;5091580;28;20736;-65
2022/07/14 11:16:03;;;;;;;6.50;1.55;;;25.50;11.30;;;;;;5099635;28;20211;-66
2022/07/14 11:18:35;;;;;;;4.25;1.25;;;25.10;10.30;;;;;;5099494;28;20193;-65
2022/07/14 11:21:07;;;;;;;2.60;1.25;;;25.40;8.80;;;;;;5102642;28;20208;-66
2022/07/14 11:23:35;;;;;;;3.55;1.30;;;25.80;8.40;;;;;;5099368;28;20643;-66
2022/07/14 11:26:05;;;;;;;3.58;1.67;;;25.90;5.50;;;;;;5110140;27;20227;-65
2022/07/14 11:28:40;;;;;;;5.88;1.55;;;25.50;6.80;;;;;;5123400;27;20296;-65
2022/07/14 11:31:12;;;;;;;5.15;1.50;;;25.10;7.40;;;;;;5104685;28;20196;-65
2022/07/14 11:36:17;;;;;;;2.85;1.38;;;25.80;5.90;;;;;;5111769;28;20207;-66
2022/07/14 11:36:30;;;;;;;4.30;1.15;;;25.40;2.50;;;;;;5112189;28;20266;-66
2022/07/14 11:39:22;;;;;;;4.68;1.20;;;25.60;6.50;;;;;;5107248;28;20335;-65
2022/07/14 11:41:52;;;;;;;5.45;1.50;;;26.20;7.00;;;;;;5091788;28;20212;-66
2022/07/14 11:44:51;;;;;;;2.20;0.98;;;26.10;6.30;;;;;;5091756;28;20566;-66
2022/07/14 11:47:20;;;;;;;3.65;1.40;;;25.90;6.10;;;;;;5092151;28;20233;-66
2022/07/14 11:49:59;;;;;;;2.67;1.30;;;25.70;7.60;;;;;;5094582;28;20213;-66
2022/07/14 11:52:30;;;;;;;3.40;1.05;;;26.10;3.70;;;;;;5095806;28;20201;-66
2022/07/14 11:54:58;;;;;;;5.22;1.38;;;25.70;3.30;;;;;;5095062;28;20237;-65
2022/07/14 11:57:26;;;;;;;1.98;0.70;;;26.10;2.40;;;;;;5096066;28;20559;-65
2022/07/14 11:59:54;;;;;;;3.50;1.15;;;25.20;3.20;;;;;;5095716;28;20258;-66
2022/07/14 12:02:23;;;;;;;3.05;1.20;;;25.30;1.90;;;;;;5094320;28;20205;-66
2022/07/14 12:04:52;;;;;;;2.55;1.02;;;25.90;3.00;;;;;;5110377;28;20228;-66
2022/07/14 12:07:20;;;;;;;5.22;1.38;;;26.30;3.50;;;;;;5115829;28;20291;-66
2022/07/14 12:09:49;;;;;;;2.25;0.93;;;26.40;4.30;;;;;;5113473;28;20670;-66
2022/07/14 12:12:17;;;;;;;3.60;0.80;;;26.30;2.00;;;;;;5109539;28;20193;-66
2022/07/14 12:14:45;;;;;;;3.95;1.08;;;26.40;1.70;;;;;;5114951;28;20204;-66
2022/07/14 12:17:12;;;;;;;2.50;0.98;;;26.40;1.00;;;;;;5102156;28;20205;-66
2022/07/14 12:19:39;;;;;;;5.30;1.15;;;26.90;2.80;;;;;;5093833;28;20209;-66
2022/07/14 12:22:07;;;;;;;3.80;1.50;;;25.90;1.10;;;;;;5100287;28;20674;-65
2022/07/14 12:24:35;;;;;;;3.08;1.13;;;26.60;1.80;;;;;;5113819;28;20197;-66
2022/07/14 12:27:05;;;;;;;2.80;1.08;;;26.20;1.00;;;;;;5113463;28;20716;-66
2022/07/14 12:29:33;;;;;;;5.00;1.25;;;26.90;2.80;;;;;;5095302;28;20210;-66
2022/07/14 12:32:01;;;;;;;2.00;0.95;;;26.80;1.20;;;;;;5094339;28;20349;-66
2022/07/14 12:34:29;;;;;;;3.45;1.50;;;26.50;2.00;;;;;;5094082;28;20303;-66
2022/07/14 12:36:57;;;;;;;2.80;0.88;;;26.50;1.10;;;;;;5094840;28;20577;-66
2022/07/14 12:39:25;;;;;;;4.18;1.45;;;25.40;1.70;;;;;;5111311;28;20560;-65
2022/07/14 12:41:52;;;;;;;3.70;1.00;;;25.00;1.40;;;;;;5115307;28;20201;-66
2022/07/14 12:44:21;;;;;;;4.03;1.27;;;25.20;1.90;;;;;;5109845;28;20658;-66
2022/07/14 12:47:06;;;;;;;4.70;1.10;;;25.60;3.80;;;;;;5095210;28;20212;-65
2022/07/14 12:49:44;;;;;;;4.20;1.27;;;25.70;1.70;;;;;;5111083;28;20285;-65
2022/07/14 12:52:11;;;;;;;1.90;1.17;;;25.70;3.80;;;;;;5093775;28;20648;-65
2022/07/14 12:54:40;;;;;;;4.78;1.60;;;25.40;1.90;;;;;;5107040;28;20206;-66
2022/07/14 12:57:08;;;;;;;3.10;1.40;;;25.50;3.30;;;;;;5094610;28;20251;-65
2022/07/14 12:59:37;;;;;;;3.08;1.00;;;24.90;3.70;;;;;;5094585;27;20228;-65
2022/07/14 13:02:06;;;;;;;3.47;1.50;;;25.30;2.30;;;;;;5125221;27;20550;-65
2022/07/14 13:04:35;;;;;;;1.90;1.10;;;25.70;1.00;;;;;;5135549;27;20197;-66